sensor_id;sensor_type;location;lat;lon;timestamp;P1;durP1;ratioP1;P2;durP2;ratioP2
39848;SDS011;25518;47.878;15.914;2023-02-20T00:01:07;5.50;;;2.20;;
39848;SDS011;25518;47.878;15.914;2023-02-20T00:03:56;3.97;;;2.03;;
39848;SDS011;25518;47.878;15.914;2023-02-20T00:06:46;5.10;;;2.10;;
39848;SDS011;25518;47.878;15.914;2023-02-20T00:09:36;3.63;;;1.90;;
39848;SDS011;25518;47.878;15.914;2023-02-20T00:12:25;3.80;;;2.47;;
39848;SDS011;25518;47.878;15.914;2023-02-20T00:15:16;3.37;;;1.90;;
39848;SDS011;25518;47.878;15.914;2023-02-20T00:18:07;4.80;;;2.10;;
39848;SDS011;25518;47.878;15.914;2023-02-20T00:20:56;3.67;;;1.80;;
39848;SDS011;25518;47.878;15.914;2023-02-20T00:23:46;5.53;;;2.08;;
39848;SDS011;25518;47.878;15.914;2023-02-20T00:26:35;3.78;;;1.70;;
39848;SDS011;25518;47.878;15.914;2023-02-20T00:29:25;5.30;;;2.00;;
39848;SDS011;25518;47.878;15.914;2023-02-20T00:32:15;3.80;;;2.15;;
39848;SDS011;25518;47.878;15.914;2023-02-20T00:35:05;4.20;;;2.40;;
39848;SDS011;25518;47.878;15.914;2023-02-20T00:37:55;3.75;;;2.20;;
39848;SDS011;25518;47.878;15.914;2023-02-20T00:40:44;5.72;;;2.00;;
39848;SDS011;25518;47.878;15.914;2023-02-20T00:43:34;3.60;;;2.00;;
39848;SDS011;25518;47.878;15.914;2023-02-20T00:46:24;3.85;;;1.67;;
39848;SDS011;25518;47.878;15.914;2023-02-20T00:49:13;4.28;;;1.80;;
39848;SDS011;25518;47.878;15.914;2023-02-20T00:52:03;4.20;;;2.00;;
39848;SDS011;25518;47.878;15.914;2023-02-20T00:54:53;3.87;;;1.80;;
39848;SDS011;25518;47.878;15.914;2023-02-20T00:57:43;5.10;;;1.88;;
39848;SDS011;25518;47.878;15.914;2023-02-20T01:00:32;3.63;;;1.60;;
39848;SDS011;25518;47.878;15.914;2023-02-20T01:03:22;6.00;;;1.80;;
39848;SDS011;25518;47.878;15.914;2023-02-20T01:06:12;4.30;;;2.00;;
39848;SDS011;25518;47.878;15.914;2023-02-20T01:09:01;4.68;;;1.70;;
39848;SDS011;25518;47.878;15.914;2023-02-20T01:11:51;4.85;;;1.90;;
39848;SDS011;25518;47.878;15.914;2023-02-20T01:14:41;4.10;;;1.75;;
39848;SDS011;25518;47.878;15.914;2023-02-20T01:17:31;4.53;;;1.92;;
39848;SDS011;25518;47.878;15.914;2023-02-20T01:20:21;3.20;;;1.80;;
39848;SDS011;25518;47.878;15.914;2023-02-20T01:23:10;4.65;;;1.50;;
39848;SDS011;25518;47.878;15.914;2023-02-20T01:26:00;4.75;;;1.70;;
39848;SDS011;25518;47.878;15.914;2023-02-20T01:28:50;4.07;;;1.67;;
39848;SDS011;25518;47.878;15.914;2023-02-20T01:31:39;4.28;;;1.65;;
39848;SDS011;25518;47.878;15.914;2023-02-20T01:34:37;4.30;;;1.33;;
39848;SDS011;25518;47.878;15.914;2023-02-20T01:37:27;3.53;;;1.60;;
39848;SDS011;25518;47.878;15.914;2023-02-20T01:40:18;3.53;;;1.35;;
39848;SDS011;25518;47.878;15.914;2023-02-20T01:43:10;4.75;;;1.70;;
39848;SDS011;25518;47.878;15.914;2023-02-20T01:49:18;3.72;;;1.50;;
39848;SDS011;25518;47.878;15.914;2023-02-20T01:52:15;2.85;;;1.40;;
39848;SDS011;25518;47.878;15.914;2023-02-20T01:55:08;2.85;;;1.65;;
39848;SDS011;25518;47.878;15.914;2023-02-20T01:58:05;3.90;;;1.58;;
39848;SDS011;25518;47.878;15.914;2023-02-20T02:01:00;5.05;;;2.15;;
39848;SDS011;25518;47.878;15.914;2023-02-20T02:03:54;3.63;;;1.60;;
39848;SDS011;25518;47.878;15.914;2023-02-20T02:06:48;3.05;;;1.50;;
39848;SDS011;25518;47.878;15.914;2023-02-20T02:10:13;3.50;;;1.50;;
39848;SDS011;25518;47.878;15.914;2023-02-20T02:12:52;4.78;;;1.83;;
39848;SDS011;25518;47.878;15.914;2023-02-20T02:15:42;2.65;;;1.30;;
39848;SDS011;25518;47.878;15.914;2023-02-20T02:18:34;4.30;;;1.47;;
39848;SDS011;25518;47.878;15.914;2023-02-20T02:45:49;2.10;;;1.20;;
39848;SDS011;25518;47.878;15.914;2023-02-20T02:48:41;4.13;;;1.50;;
39848;SDS011;25518;47.878;15.914;2023-02-20T02:51:37;3.72;;;1.35;;
39848;SDS011;25518;47.878;15.914;2023-02-20T02:54:34;3.78;;;1.40;;
39848;SDS011;25518;47.878;15.914;2023-02-20T02:57:25;2.75;;;1.10;;
39848;SDS011;25518;47.878;15.914;2023-02-20T03:20:14;3.17;;;1.38;;
39848;SDS011;25518;47.878;15.914;2023-02-20T03:23:06;2.95;;;1.30;;
39848;SDS011;25518;47.878;15.914;2023-02-20T03:26:00;3.90;;;1.20;;
39848;SDS011;25518;47.878;15.914;2023-02-20T03:28:55;3.67;;;1.15;;
39848;SDS011;25518;47.878;15.914;2023-02-20T03:31:50;5.30;;;1.90;;
39848;SDS011;25518;47.878;15.914;2023-02-20T03:35:04;3.75;;;1.23;;
39848;SDS011;25518;47.878;15.914;2023-02-20T03:38:14;3.33;;;1.42;;
39848;SDS011;25518;47.878;15.914;2023-02-20T03:41:26;3.95;;;1.42;;
39848;SDS011;25518;47.878;15.914;2023-02-20T03:44:37;4.72;;;1.42;;
39848;SDS011;25518;47.878;15.914;2023-02-20T03:47:27;4.63;;;1.38;;
39848;SDS011;25518;47.878;15.914;2023-02-20T03:50:18;3.08;;;1.55;;
39848;SDS011;25518;47.878;15.914;2023-02-20T03:53:08;3.63;;;1.40;;
39848;SDS011;25518;47.878;15.914;2023-02-20T03:56:00;3.30;;;1.40;;
39848;SDS011;25518;47.878;15.914;2023-02-20T03:58:54;3.50;;;1.52;;
39848;SDS011;25518;47.878;15.914;2023-02-20T04:01:51;3.20;;;1.50;;
39848;SDS011;25518;47.878;15.914;2023-02-20T04:04:47;4.30;;;1.40;;
39848;SDS011;25518;47.878;15.914;2023-02-20T04:07:41;3.30;;;1.15;;
39848;SDS011;25518;47.878;15.914;2023-02-20T04:10:42;3.67;;;1.50;;
39848;SDS011;25518;47.878;15.914;2023-02-20T04:13:37;4.30;;;1.60;;
39848;SDS011;25518;47.878;15.914;2023-02-20T04:16:28;3.78;;;1.55;;
39848;SDS011;25518;47.878;15.914;2023-02-20T04:19:23;4.60;;;1.65;;
39848;SDS011;25518;47.878;15.914;2023-02-20T04:22:15;2.95;;;1.70;;
39848;SDS011;25518;47.878;15.914;2023-02-20T04:25:11;2.80;;;1.60;;
39848;SDS011;25518;47.878;15.914;2023-02-20T04:28:11;3.67;;;1.42;;
39848;SDS011;25518;47.878;15.914;2023-02-20T04:31:01;3.25;;;1.30;;
39848;SDS011;25518;47.878;15.914;2023-02-20T04:33:51;3.35;;;1.45;;
39848;SDS011;25518;47.878;15.914;2023-02-20T04:36:41;4.22;;;1.58;;
39848;SDS011;25518;47.878;15.914;2023-02-20T04:39:31;3.03;;;1.20;;
39848;SDS011;25518;47.878;15.914;2023-02-20T04:42:20;2.33;;;1.30;;
39848;SDS011;25518;47.878;15.914;2023-02-20T04:45:10;3.30;;;1.58;;
39848;SDS011;25518;47.878;15.914;2023-02-20T04:48:00;3.45;;;1.40;;
39848;SDS011;25518;47.878;15.914;2023-02-20T04:50:49;3.03;;;1.50;;
39848;SDS011;25518;47.878;15.914;2023-02-20T04:53:39;5.88;;;1.92;;
39848;SDS011;25518;47.878;15.914;2023-02-20T04:56:29;4.13;;;1.55;;
39848;SDS011;25518;47.878;15.914;2023-02-20T04:59:18;3.70;;;1.42;;
39848;SDS011;25518;47.878;15.914;2023-02-20T05:02:08;4.07;;;1.50;;
39848;SDS011;25518;47.878;15.914;2023-02-20T05:04:57;2.72;;;1.45;;
39848;SDS011;25518;47.878;15.914;2023-02-20T05:07:47;4.50;;;1.45;;
39848;SDS011;25518;47.878;15.914;2023-02-20T05:10:37;3.25;;;1.27;;
39848;SDS011;25518;47.878;15.914;2023-02-20T05:13:26;4.57;;;1.67;;
39848;SDS011;25518;47.878;15.914;2023-02-20T05:16:16;3.42;;;1.30;;
39848;SDS011;25518;47.878;15.914;2023-02-20T05:19:06;4.60;;;1.60;;
39848;SDS011;25518;47.878;15.914;2023-02-20T05:21:56;3.42;;;1.63;;
39848;SDS011;25518;47.878;15.914;2023-02-20T05:25:06;4.18;;;1.60;;
39848;SDS011;25518;47.878;15.914;2023-02-20T05:27:56;3.92;;;1.63;;
39848;SDS011;25518;47.878;15.914;2023-02-20T05:30:46;4.50;;;1.50;;
39848;SDS011;25518;47.878;15.914;2023-02-20T05:33:36;3.60;;;1.20;;
39848;SDS011;25518;47.878;15.914;2023-02-20T05:36:26;2.28;;;1.13;;
39848;SDS011;25518;47.878;15.914;2023-02-20T05:39:15;4.22;;;1.70;;
39848;SDS011;25518;47.878;15.914;2023-02-20T05:42:05;4.45;;;1.80;;
39848;SDS011;25518;47.878;15.914;2023-02-20T05:44:56;2.80;;;1.42;;
39848;SDS011;25518;47.878;15.914;2023-02-20T05:47:46;3.10;;;1.52;;
39848;SDS011;25518;47.878;15.914;2023-02-20T05:50:36;3.53;;;1.40;;
39848;SDS011;25518;47.878;15.914;2023-02-20T05:53:26;3.70;;;1.58;;
39848;SDS011;25518;47.878;15.914;2023-02-20T05:56:17;3.05;;;1.27;;
39848;SDS011;25518;47.878;15.914;2023-02-20T05:59:07;4.70;;;1.37;;
39848;SDS011;25518;47.878;15.914;2023-02-20T06:01:58;5.90;;;1.70;;
39848;SDS011;25518;47.878;15.914;2023-02-20T06:04:48;2.65;;;1.20;;
39848;SDS011;25518;47.878;15.914;2023-02-20T06:07:37;3.30;;;1.20;;
39848;SDS011;25518;47.878;15.914;2023-02-20T06:10:27;3.08;;;1.20;;
39848;SDS011;25518;47.878;15.914;2023-02-20T06:13:16;4.40;;;1.42;;
39848;SDS011;25518;47.878;15.914;2023-02-20T06:16:06;3.28;;;1.50;;
39848;SDS011;25518;47.878;15.914;2023-02-20T06:18:58;2.85;;;1.35;;
39848;SDS011;25518;47.878;15.914;2023-02-20T06:21:48;3.70;;;1.73;;
39848;SDS011;25518;47.878;15.914;2023-02-20T06:24:39;4.80;;;1.70;;
39848;SDS011;25518;47.878;15.914;2023-02-20T06:27:32;3.03;;;1.50;;
39848;SDS011;25518;47.878;15.914;2023-02-20T06:30:21;3.05;;;1.40;;
39848;SDS011;25518;47.878;15.914;2023-02-20T06:33:11;2.83;;;1.42;;
39848;SDS011;25518;47.878;15.914;2023-02-20T06:36:00;4.65;;;1.25;;
39848;SDS011;25518;47.878;15.914;2023-02-20T06:38:51;5.00;;;1.52;;
39848;SDS011;25518;47.878;15.914;2023-02-20T06:41:41;2.85;;;1.38;;
39848;SDS011;25518;47.878;15.914;2023-02-20T06:44:32;3.15;;;1.10;;
39848;SDS011;25518;47.878;15.914;2023-02-20T06:47:21;2.30;;;1.50;;
39848;SDS011;25518;47.878;15.914;2023-02-20T06:50:11;3.28;;;1.30;;
39848;SDS011;25518;47.878;15.914;2023-02-20T06:53:01;4.68;;;1.60;;
39848;SDS011;25518;47.878;15.914;2023-02-20T06:55:50;4.23;;;1.43;;
39848;SDS011;25518;47.878;15.914;2023-02-20T06:58:40;3.25;;;1.40;;
39848;SDS011;25518;47.878;15.914;2023-02-20T07:01:30;5.80;;;1.40;;
39848;SDS011;25518;47.878;15.914;2023-02-20T07:04:27;3.33;;;1.50;;
39848;SDS011;25518;47.878;15.914;2023-02-20T07:07:19;2.63;;;1.40;;
39848;SDS011;25518;47.878;15.914;2023-02-20T07:10:09;3.92;;;1.15;;
39848;SDS011;25518;47.878;15.914;2023-02-20T07:12:59;4.97;;;1.35;;
39848;SDS011;25518;47.878;15.914;2023-02-20T07:15:51;3.15;;;1.20;;
39848;SDS011;25518;47.878;15.914;2023-02-20T07:18:40;4.20;;;1.30;;
39848;SDS011;25518;47.878;15.914;2023-02-20T07:21:30;4.03;;;1.23;;
39848;SDS011;25518;47.878;15.914;2023-02-20T07:24:20;2.33;;;1.20;;
39848;SDS011;25518;47.878;15.914;2023-02-20T07:27:10;3.60;;;1.27;;
39848;SDS011;25518;47.878;15.914;2023-02-20T07:30:01;2.93;;;1.33;;
39848;SDS011;25518;47.878;15.914;2023-02-20T07:32:51;3.70;;;1.17;;
39848;SDS011;25518;47.878;15.914;2023-02-20T07:35:41;3.15;;;1.20;;
39848;SDS011;25518;47.878;15.914;2023-02-20T07:38:30;3.53;;;1.23;;
39848;SDS011;25518;47.878;15.914;2023-02-20T07:41:20;2.83;;;1.08;;
39848;SDS011;25518;47.878;15.914;2023-02-20T07:44:11;3.28;;;1.23;;
39848;SDS011;25518;47.878;15.914;2023-02-20T07:47:02;1.35;;;0.80;;
39848;SDS011;25518;47.878;15.914;2023-02-20T07:49:52;2.33;;;1.03;;
39848;SDS011;25518;47.878;15.914;2023-02-20T07:52:42;3.15;;;1.13;;
39848;SDS011;25518;47.878;15.914;2023-02-20T07:55:33;2.47;;;1.25;;
39848;SDS011;25518;47.878;15.914;2023-02-20T07:58:23;3.88;;;1.00;;
39848;SDS011;25518;47.878;15.914;2023-02-20T08:01:13;3.40;;;1.10;;
39848;SDS011;25518;47.878;15.914;2023-02-20T08:04:02;3.00;;;1.15;;
39848;SDS011;25518;47.878;15.914;2023-02-20T08:06:51;3.13;;;1.03;;
39848;SDS011;25518;47.878;15.914;2023-02-20T08:09:41;2.17;;;1.00;;
39848;SDS011;25518;47.878;15.914;2023-02-20T08:12:30;2.80;;;1.10;;
39848;SDS011;25518;47.878;15.914;2023-02-20T08:15:21;4.55;;;1.10;;
39848;SDS011;25518;47.878;15.914;2023-02-20T08:18:11;2.63;;;1.17;;
39848;SDS011;25518;47.878;15.914;2023-02-20T08:21:00;3.13;;;1.02;;
39848;SDS011;25518;47.878;15.914;2023-02-20T08:23:50;2.70;;;1.27;;
39848;SDS011;25518;47.878;15.914;2023-02-20T08:26:42;3.42;;;0.85;;
39848;SDS011;25518;47.878;15.914;2023-02-20T08:29:33;3.57;;;1.17;;
39848;SDS011;25518;47.878;15.914;2023-02-20T08:32:23;3.22;;;1.13;;
39848;SDS011;25518;47.878;15.914;2023-02-20T08:35:14;2.85;;;1.00;;
39848;SDS011;25518;47.878;15.914;2023-02-20T08:38:04;4.22;;;1.50;;
39848;SDS011;25518;47.878;15.914;2023-02-20T08:41:10;2.47;;;1.20;;
39848;SDS011;25518;47.878;15.914;2023-02-20T08:44:00;3.50;;;1.40;;
39848;SDS011;25518;47.878;15.914;2023-02-20T08:46:50;3.72;;;1.20;;
39848;SDS011;25518;47.878;15.914;2023-02-20T08:49:40;3.47;;;1.27;;
39848;SDS011;25518;47.878;15.914;2023-02-20T08:52:30;4.15;;;1.45;;
39848;SDS011;25518;47.878;15.914;2023-02-20T08:55:20;4.55;;;1.40;;
39848;SDS011;25518;47.878;15.914;2023-02-20T08:58:10;3.67;;;1.00;;
39848;SDS011;25518;47.878;15.914;2023-02-20T09:01:00;4.47;;;1.35;;
39848;SDS011;25518;47.878;15.914;2023-02-20T09:03:50;2.88;;;1.25;;
39848;SDS011;25518;47.878;15.914;2023-02-20T09:06:39;4.22;;;1.30;;
39848;SDS011;25518;47.878;15.914;2023-02-20T09:09:29;3.10;;;1.20;;
39848;SDS011;25518;47.878;15.914;2023-02-20T09:12:18;3.72;;;1.13;;
39848;SDS011;25518;47.878;15.914;2023-02-20T09:15:09;5.30;;;1.33;;
39848;SDS011;25518;47.878;15.914;2023-02-20T09:17:59;2.70;;;1.10;;
39848;SDS011;25518;47.878;15.914;2023-02-20T09:20:48;4.05;;;1.13;;
39848;SDS011;25518;47.878;15.914;2023-02-20T09:23:39;2.25;;;1.20;;
39848;SDS011;25518;47.878;15.914;2023-02-20T09:26:29;3.55;;;1.25;;
39848;SDS011;25518;47.878;15.914;2023-02-20T09:29:19;2.08;;;1.08;;
39848;SDS011;25518;47.878;15.914;2023-02-20T09:32:09;4.10;;;1.10;;
39848;SDS011;25518;47.878;15.914;2023-02-20T09:34:59;4.45;;;1.50;;
39848;SDS011;25518;47.878;15.914;2023-02-20T09:37:49;2.28;;;1.00;;
39848;SDS011;25518;47.878;15.914;2023-02-20T09:40:47;3.53;;;1.20;;
39848;SDS011;25518;47.878;15.914;2023-02-20T09:46:50;3.17;;;1.20;;
39848;SDS011;25518;47.878;15.914;2023-02-20T09:49:44;3.10;;;1.10;;
39848;SDS011;25518;47.878;15.914;2023-02-20T09:52:33;4.80;;;1.00;;
39848;SDS011;25518;47.878;15.914;2023-02-20T09:55:31;5.18;;;1.15;;
39848;SDS011;25518;47.878;15.914;2023-02-20T09:58:26;3.90;;;1.60;;
39848;SDS011;25518;47.878;15.914;2023-02-20T10:01:40;2.20;;;1.03;;
39848;SDS011;25518;47.878;15.914;2023-02-20T10:04:41;2.50;;;1.40;;
39848;SDS011;25518;47.878;15.914;2023-02-20T10:07:37;4.13;;;1.20;;
39848;SDS011;25518;47.878;15.914;2023-02-20T10:10:31;3.45;;;1.10;;
39848;SDS011;25518;47.878;15.914;2023-02-20T10:13:34;3.83;;;1.27;;
39848;SDS011;25518;47.878;15.914;2023-02-20T10:23:05;2.47;;;1.20;;
39848;SDS011;25518;47.878;15.914;2023-02-20T10:26:17;2.27;;;0.90;;
39848;SDS011;25518;47.878;15.914;2023-02-20T10:29:25;2.45;;;1.02;;
39848;SDS011;25518;47.878;15.914;2023-02-20T10:32:22;2.65;;;1.00;;
39848;SDS011;25518;47.878;15.914;2023-02-20T10:35:30;4.05;;;1.05;;
39848;SDS011;25518;47.878;15.914;2023-02-20T10:38:26;3.00;;;0.98;;
39848;SDS011;25518;47.878;15.914;2023-02-20T10:41:24;3.13;;;0.95;;
39848;SDS011;25518;47.878;15.914;2023-02-20T10:47:35;3.25;;;1.02;;
39848;SDS011;25518;47.878;15.914;2023-02-20T12:05:14;3.08;;;0.90;;
39848;SDS011;25518;47.878;15.914;2023-02-20T12:11:48;2.20;;;0.70;;
39848;SDS011;25518;47.878;15.914;2023-02-20T12:14:43;2.95;;;0.90;;
39848;SDS011;25518;47.878;15.914;2023-02-20T12:17:44;2.92;;;1.10;;
39848;SDS011;25518;47.878;15.914;2023-02-20T12:27:03;4.75;;;0.80;;
39848;SDS011;25518;47.878;15.914;2023-02-20T13:30:17;0.98;;;0.50;;
39848;SDS011;25518;47.878;15.914;2023-02-20T13:36:53;3.03;;;0.70;;
39848;SDS011;25518;47.878;15.914;2023-02-20T13:39:42;1.88;;;0.80;;
39848;SDS011;25518;47.878;15.914;2023-02-20T13:42:32;3.35;;;0.90;;
39848;SDS011;25518;47.878;15.914;2023-02-20T13:45:35;4.88;;;1.30;;
39848;SDS011;25518;47.878;15.914;2023-02-20T13:54:11;1.83;;;0.68;;
39848;SDS011;25518;47.878;15.914;2023-02-20T13:57:12;2.22;;;0.60;;
39848;SDS011;25518;47.878;15.914;2023-02-20T14:00:13;1.60;;;0.60;;
39848;SDS011;25518;47.878;15.914;2023-02-20T14:03:11;1.55;;;0.40;;
39848;SDS011;25518;47.878;15.914;2023-02-20T14:09:08;1.88;;;0.70;;
39848;SDS011;25518;47.878;15.914;2023-02-20T14:15:52;4.03;;;0.50;;
39848;SDS011;25518;47.878;15.914;2023-02-20T14:18:44;1.30;;;0.50;;
39848;SDS011;25518;47.878;15.914;2023-02-20T14:21:34;1.58;;;0.50;;
39848;SDS011;25518;47.878;15.914;2023-02-20T14:24:43;1.83;;;0.60;;
39848;SDS011;25518;47.878;15.914;2023-02-20T14:27:33;1.75;;;0.50;;
39848;SDS011;25518;47.878;15.914;2023-02-20T14:30:23;1.92;;;0.50;;
39848;SDS011;25518;47.878;15.914;2023-02-20T14:33:25;1.20;;;0.50;;
39848;SDS011;25518;47.878;15.914;2023-02-20T14:36:19;2.08;;;0.50;;
39848;SDS011;25518;47.878;15.914;2023-02-20T14:42:32;1.15;;;0.50;;
39848;SDS011;25518;47.878;15.914;2023-02-20T14:45:24;1.27;;;0.55;;
39848;SDS011;25518;47.878;15.914;2023-02-20T14:48:24;3.47;;;0.70;;
39848;SDS011;25518;47.878;15.914;2023-02-20T14:51:17;1.08;;;0.52;;
39848;SDS011;25518;47.878;15.914;2023-02-20T14:57:13;1.33;;;0.50;;
39848;SDS011;25518;47.878;15.914;2023-02-20T15:00:21;2.13;;;0.60;;
39848;SDS011;25518;47.878;15.914;2023-02-20T15:03:18;2.80;;;0.50;;
39848;SDS011;25518;47.878;15.914;2023-02-20T15:06:12;2.83;;;0.70;;
39848;SDS011;25518;47.878;15.914;2023-02-20T15:09:04;1.75;;;0.70;;
39848;SDS011;25518;47.878;15.914;2023-02-20T15:11:55;0.80;;;0.38;;
39848;SDS011;25518;47.878;15.914;2023-02-20T15:14:52;1.60;;;0.70;;
39848;SDS011;25518;47.878;15.914;2023-02-20T15:17:44;0.80;;;0.32;;
39848;SDS011;25518;47.878;15.914;2023-02-20T15:20:36;1.58;;;0.60;;
39848;SDS011;25518;47.878;15.914;2023-02-20T15:23:28;1.05;;;0.50;;
39848;SDS011;25518;47.878;15.914;2023-02-20T15:26:35;0.93;;;0.40;;
39848;SDS011;25518;47.878;15.914;2023-02-20T15:29:26;3.40;;;0.60;;
39848;SDS011;25518;47.878;15.914;2023-02-20T15:32:18;1.35;;;0.80;;
39848;SDS011;25518;47.878;15.914;2023-02-20T15:35:13;3.95;;;1.10;;
39848;SDS011;25518;47.878;15.914;2023-02-20T15:38:05;1.98;;;0.60;;
39848;SDS011;25518;47.878;15.914;2023-02-20T15:40:58;3.00;;;1.20;;
39848;SDS011;25518;47.878;15.914;2023-02-20T15:44:13;2.85;;;1.00;;
39848;SDS011;25518;47.878;15.914;2023-02-20T15:59:31;2.00;;;0.63;;
39848;SDS011;25518;47.878;15.914;2023-02-20T16:02:21;2.05;;;0.52;;
39848;SDS011;25518;47.878;15.914;2023-02-20T16:05:12;1.10;;;0.40;;
39848;SDS011;25518;47.878;15.914;2023-02-20T16:08:02;0.80;;;0.30;;
39848;SDS011;25518;47.878;15.914;2023-02-20T16:10:51;1.70;;;0.40;;
39848;SDS011;25518;47.878;15.914;2023-02-20T16:13:42;2.25;;;0.50;;
39848;SDS011;25518;47.878;15.914;2023-02-20T16:16:38;1.42;;;0.45;;
39848;SDS011;25518;47.878;15.914;2023-02-20T16:19:30;0.95;;;0.40;;
39848;SDS011;25518;47.878;15.914;2023-02-20T16:22:20;1.03;;;0.60;;
39848;SDS011;25518;47.878;15.914;2023-02-20T16:25:11;2.15;;;0.68;;
39848;SDS011;25518;47.878;15.914;2023-02-20T16:28:02;2.20;;;0.50;;
39848;SDS011;25518;47.878;15.914;2023-02-20T16:30:53;1.98;;;0.50;;
39848;SDS011;25518;47.878;15.914;2023-02-20T16:33:43;3.70;;;0.90;;
39848;SDS011;25518;47.878;15.914;2023-02-20T16:36:33;2.07;;;0.70;;
39848;SDS011;25518;47.878;15.914;2023-02-20T16:39:22;1.73;;;0.70;;
39848;SDS011;25518;47.878;15.914;2023-02-20T16:42:29;3.10;;;0.75;;
39848;SDS011;25518;47.878;15.914;2023-02-20T16:45:21;1.38;;;0.60;;
39848;SDS011;25518;47.878;15.914;2023-02-20T16:48:12;0.90;;;0.40;;
39848;SDS011;25518;47.878;15.914;2023-02-20T16:51:05;1.63;;;0.50;;
39848;SDS011;25518;47.878;15.914;2023-02-20T16:53:59;0.70;;;0.33;;
39848;SDS011;25518;47.878;15.914;2023-02-20T16:56:49;1.65;;;0.60;;
39848;SDS011;25518;47.878;15.914;2023-02-20T16:59:38;2.28;;;0.60;;
39848;SDS011;25518;47.878;15.914;2023-02-20T17:02:29;1.65;;;0.63;;
39848;SDS011;25518;47.878;15.914;2023-02-20T17:05:21;3.00;;;1.10;;
39848;SDS011;25518;47.878;15.914;2023-02-20T17:08:13;4.27;;;1.70;;
39848;SDS011;25518;47.878;15.914;2023-02-20T17:11:02;0.90;;;0.50;;
39848;SDS011;25518;47.878;15.914;2023-02-20T17:13:52;2.72;;;0.55;;
39848;SDS011;25518;47.878;15.914;2023-02-20T17:16:46;2.17;;;0.65;;
39848;SDS011;25518;47.878;15.914;2023-02-20T17:19:38;3.20;;;0.90;;
39848;SDS011;25518;47.878;15.914;2023-02-20T17:22:28;2.23;;;0.67;;
39848;SDS011;25518;47.878;15.914;2023-02-20T17:25:19;1.42;;;0.60;;
39848;SDS011;25518;47.878;15.914;2023-02-20T17:28:10;1.50;;;0.60;;
39848;SDS011;25518;47.878;15.914;2023-02-20T17:31:03;1.77;;;0.70;;
39848;SDS011;25518;47.878;15.914;2023-02-20T17:33:53;2.28;;;1.02;;
39848;SDS011;25518;47.878;15.914;2023-02-20T17:36:43;1.85;;;0.80;;
39848;SDS011;25518;47.878;15.914;2023-02-20T17:39:36;1.52;;;0.65;;
39848;SDS011;25518;47.878;15.914;2023-02-20T17:42:27;1.10;;;0.50;;
39848;SDS011;25518;47.878;15.914;2023-02-20T17:45:18;1.13;;;0.50;;
39848;SDS011;25518;47.878;15.914;2023-02-20T17:48:08;0.95;;;0.43;;
39848;SDS011;25518;47.878;15.914;2023-02-20T17:50:58;1.88;;;0.63;;
39848;SDS011;25518;47.878;15.914;2023-02-20T17:53:47;2.97;;;0.50;;
39848;SDS011;25518;47.878;15.914;2023-02-20T17:56:39;1.40;;;0.50;;
39848;SDS011;25518;47.878;15.914;2023-02-20T17:59:29;2.03;;;0.57;;
39848;SDS011;25518;47.878;15.914;2023-02-20T18:02:19;0.73;;;0.40;;
39848;SDS011;25518;47.878;15.914;2023-02-20T18:05:08;2.17;;;0.75;;
39848;SDS011;25518;47.878;15.914;2023-02-20T18:07:59;2.55;;;0.70;;
39848;SDS011;25518;47.878;15.914;2023-02-20T18:10:48;2.47;;;0.55;;
39848;SDS011;25518;47.878;15.914;2023-02-20T18:13:38;1.00;;;0.60;;
39848;SDS011;25518;47.878;15.914;2023-02-20T18:16:27;0.70;;;0.50;;
39848;SDS011;25518;47.878;15.914;2023-02-20T18:19:17;1.65;;;0.40;;
39848;SDS011;25518;47.878;15.914;2023-02-20T18:22:08;1.63;;;0.50;;
39848;SDS011;25518;47.878;15.914;2023-02-20T18:24:57;1.58;;;0.45;;
39848;SDS011;25518;47.878;15.914;2023-02-20T18:27:47;2.38;;;0.40;;
39848;SDS011;25518;47.878;15.914;2023-02-20T18:30:36;3.40;;;0.50;;
39848;SDS011;25518;47.878;15.914;2023-02-20T18:33:27;2.72;;;0.52;;
39848;SDS011;25518;47.878;15.914;2023-02-20T18:36:16;2.65;;;0.73;;
39848;SDS011;25518;47.878;15.914;2023-02-20T18:39:06;1.92;;;0.60;;
39848;SDS011;25518;47.878;15.914;2023-02-20T18:41:58;3.17;;;0.93;;
39848;SDS011;25518;47.878;15.914;2023-02-20T18:44:47;1.60;;;0.73;;
39848;SDS011;25518;47.878;15.914;2023-02-20T18:47:37;3.17;;;0.60;;
39848;SDS011;25518;47.878;15.914;2023-02-20T18:50:26;2.03;;;0.55;;
39848;SDS011;25518;47.878;15.914;2023-02-20T18:53:16;3.10;;;0.60;;
39848;SDS011;25518;47.878;15.914;2023-02-20T18:56:08;1.98;;;0.70;;
39848;SDS011;25518;47.878;15.914;2023-02-20T18:58:58;1.70;;;0.65;;
39848;SDS011;25518;47.878;15.914;2023-02-20T19:01:49;1.20;;;0.57;;
39848;SDS011;25518;47.878;15.914;2023-02-20T19:04:39;4.43;;;1.70;;
39848;SDS011;25518;47.878;15.914;2023-02-20T19:07:29;3.20;;;1.10;;
39848;SDS011;25518;47.878;15.914;2023-02-20T19:10:21;3.00;;;1.00;;
39848;SDS011;25518;47.878;15.914;2023-02-20T19:13:12;2.22;;;0.88;;
39848;SDS011;25518;47.878;15.914;2023-02-20T19:16:01;4.70;;;0.60;;
39848;SDS011;25518;47.878;15.914;2023-02-20T19:18:54;3.53;;;0.88;;
39848;SDS011;25518;47.878;15.914;2023-02-20T19:21:43;1.92;;;0.80;;
39848;SDS011;25518;47.878;15.914;2023-02-20T19:24:37;2.42;;;0.82;;
39848;SDS011;25518;47.878;15.914;2023-02-20T19:27:27;3.28;;;0.80;;
39848;SDS011;25518;47.878;15.914;2023-02-20T19:30:17;2.00;;;0.60;;
39848;SDS011;25518;47.878;15.914;2023-02-20T19:33:08;2.55;;;0.73;;
39848;SDS011;25518;47.878;15.914;2023-02-20T19:35:58;3.20;;;0.60;;
39848;SDS011;25518;47.878;15.914;2023-02-20T19:38:48;1.67;;;0.73;;
39848;SDS011;25518;47.878;15.914;2023-02-20T19:41:38;2.45;;;1.08;;
39848;SDS011;25518;47.878;15.914;2023-02-20T19:44:28;1.15;;;0.50;;
39848;SDS011;25518;47.878;15.914;2023-02-20T19:47:18;3.22;;;0.80;;
39848;SDS011;25518;47.878;15.914;2023-02-20T19:50:08;1.25;;;0.60;;
39848;SDS011;25518;47.878;15.914;2023-02-20T19:52:58;2.72;;;0.95;;
39848;SDS011;25518;47.878;15.914;2023-02-20T19:55:48;2.20;;;0.73;;
39848;SDS011;25518;47.878;15.914;2023-02-20T19:58:42;2.25;;;0.70;;
39848;SDS011;25518;47.878;15.914;2023-02-20T20:01:32;1.45;;;0.60;;
39848;SDS011;25518;47.878;15.914;2023-02-20T20:04:22;1.70;;;0.50;;
39848;SDS011;25518;47.878;15.914;2023-02-20T20:07:13;1.67;;;0.50;;
39848;SDS011;25518;47.878;15.914;2023-02-20T20:10:03;1.77;;;0.55;;
39848;SDS011;25518;47.878;15.914;2023-02-20T20:12:56;1.70;;;0.73;;
39848;SDS011;25518;47.878;15.914;2023-02-20T20:15:45;1.80;;;0.47;;
39848;SDS011;25518;47.878;15.914;2023-02-20T20:18:35;0.80;;;0.40;;
39848;SDS011;25518;47.878;15.914;2023-02-20T20:21:25;1.17;;;0.47;;
39848;SDS011;25518;47.878;15.914;2023-02-20T20:24:15;2.10;;;0.77;;
39848;SDS011;25518;47.878;15.914;2023-02-20T20:27:04;1.92;;;0.70;;
39848;SDS011;25518;47.878;15.914;2023-02-20T20:29:54;1.55;;;0.60;;
39848;SDS011;25518;47.878;15.914;2023-02-20T20:32:45;1.63;;;0.60;;
39848;SDS011;25518;47.878;15.914;2023-02-20T20:35:37;1.60;;;0.60;;
39848;SDS011;25518;47.878;15.914;2023-02-20T20:38:27;1.75;;;0.63;;
39848;SDS011;25518;47.878;15.914;2023-02-20T20:41:16;2.47;;;0.65;;
39848;SDS011;25518;47.878;15.914;2023-02-20T20:44:06;2.65;;;0.85;;
39848;SDS011;25518;47.878;15.914;2023-02-20T20:46:56;1.25;;;0.55;;
39848;SDS011;25518;47.878;15.914;2023-02-20T20:49:46;2.20;;;0.65;;
39848;SDS011;25518;47.878;15.914;2023-02-20T20:52:35;1.40;;;0.43;;
39848;SDS011;25518;47.878;15.914;2023-02-20T20:55:25;1.63;;;0.70;;
